sensor_id;sensor_type;location;lat;lon;timestamp;P1;durP1;ratioP1;P2;durP2;ratioP2
27201;SDS011;14717;46.924;15.474;2023-05-29T00:01:25;12.00;;;4.38;;
27201;SDS011;14717;46.924;15.474;2023-05-29T00:03:51;8.68;;;4.55;;
27201;SDS011;14717;46.924;15.474;2023-05-29T00:06:17;8.02;;;4.32;;
27201;SDS011;14717;46.924;15.474;2023-05-29T00:08:44;9.20;;;4.35;;
27201;SDS011;14717;46.924;15.474;2023-05-29T00:11:10;8.32;;;4.43;;
27201;SDS011;14717;46.924;15.474;2023-05-29T00:13:35;7.35;;;3.97;;
27201;SDS011;14717;46.924;15.474;2023-05-29T00:16:00;7.95;;;3.85;;
27201;SDS011;14717;46.924;15.474;2023-05-29T00:18:28;9.57;;;4.05;;
27201;SDS011;14717;46.924;15.474;2023-05-29T00:20:54;7.43;;;4.15;;
27201;SDS011;14717;46.924;15.474;2023-05-29T00:23:20;8.07;;;4.00;;
27201;SDS011;14717;46.924;15.474;2023-05-29T00:25:46;9.77;;;4.47;;
27201;SDS011;14717;46.924;15.474;2023-05-29T00:28:11;8.45;;;3.95;;
27201;SDS011;14717;46.924;15.474;2023-05-29T00:30:37;8.13;;;4.03;;
27201;SDS011;14717;46.924;15.474;2023-05-29T00:33:03;8.43;;;4.32;;
27201;SDS011;14717;46.924;15.474;2023-05-29T00:35:29;9.18;;;4.35;;
27201;SDS011;14717;46.924;15.474;2023-05-29T00:37:54;6.68;;;3.72;;
27201;SDS011;14717;46.924;15.474;2023-05-29T00:40:20;9.18;;;4.30;;
27201;SDS011;14717;46.924;15.474;2023-05-29T00:42:45;7.63;;;3.85;;
27201;SDS011;14717;46.924;15.474;2023-05-29T00:45:11;7.30;;;4.45;;
27201;SDS011;14717;46.924;15.474;2023-05-29T00:47:38;7.80;;;3.67;;
27201;SDS011;14717;46.924;15.474;2023-05-29T00:50:04;7.68;;;3.97;;
27201;SDS011;14717;46.924;15.474;2023-05-29T00:52:31;8.10;;;4.00;;
27201;SDS011;14717;46.924;15.474;2023-05-29T00:54:57;8.07;;;4.30;;
27201;SDS011;14717;46.924;15.474;2023-05-29T00:57:23;8.73;;;4.18;;
27201;SDS011;14717;46.924;15.474;2023-05-29T00:59:48;8.48;;;3.85;;
27201;SDS011;14717;46.924;15.474;2023-05-29T01:02:15;8.35;;;3.85;;
27201;SDS011;14717;46.924;15.474;2023-05-29T01:04:41;7.47;;;3.70;;
27201;SDS011;14717;46.924;15.474;2023-05-29T01:07:09;8.82;;;4.50;;
27201;SDS011;14717;46.924;15.474;2023-05-29T01:09:34;7.50;;;3.90;;
27201;SDS011;14717;46.924;15.474;2023-05-29T01:15:28;7.68;;;3.88;;
27201;SDS011;14717;46.924;15.474;2023-05-29T01:21:11;8.57;;;3.85;;
27201;SDS011;14717;46.924;15.474;2023-05-29T01:23:50;7.40;;;4.05;;
27201;SDS011;14717;46.924;15.474;2023-05-29T01:29:26;8.05;;;4.47;;
27201;SDS011;14717;46.924;15.474;2023-05-29T01:31:53;8.73;;;3.90;;
27201;SDS011;14717;46.924;15.474;2023-05-29T01:34:19;10.35;;;4.40;;
27201;SDS011;14717;46.924;15.474;2023-05-29T01:36:44;7.97;;;4.40;;
27201;SDS011;14717;46.924;15.474;2023-05-29T01:39:11;8.98;;;4.55;;
27201;SDS011;14717;46.924;15.474;2023-05-29T01:41:37;11.25;;;4.47;;
27201;SDS011;14717;46.924;15.474;2023-05-29T01:46:33;8.00;;;3.92;;
27201;SDS011;14717;46.924;15.474;2023-05-29T01:49:00;7.50;;;4.50;;
27201;SDS011;14717;46.924;15.474;2023-05-29T01:53:51;7.55;;;4.07;;
27201;SDS011;14717;46.924;15.474;2023-05-29T01:58:42;9.00;;;3.90;;
27201;SDS011;14717;46.924;15.474;2023-05-29T02:01:09;8.52;;;4.00;;
27201;SDS011;14717;46.924;15.474;2023-05-29T02:03:34;11.98;;;4.55;;
27201;SDS011;14717;46.924;15.474;2023-05-29T02:08:26;7.47;;;4.50;;
27201;SDS011;14717;46.924;15.474;2023-05-29T02:13:17;9.10;;;4.05;;
27201;SDS011;14717;46.924;15.474;2023-05-29T02:18:09;8.07;;;4.25;;
27201;SDS011;14717;46.924;15.474;2023-05-29T02:20:40;7.03;;;3.80;;
27201;SDS011;14717;46.924;15.474;2023-05-29T02:25:31;7.80;;;4.00;;
27201;SDS011;14717;46.924;15.474;2023-05-29T02:30:21;10.30;;;4.23;;
27201;SDS011;14717;46.924;15.474;2023-05-29T02:35:12;8.23;;;4.10;;
27201;SDS011;14717;46.924;15.474;2023-05-29T02:37:42;10.15;;;4.32;;
27201;SDS011;14717;46.924;15.474;2023-05-29T02:42:33;9.38;;;3.78;;
27201;SDS011;14717;46.924;15.474;2023-05-29T02:47:24;8.57;;;4.60;;
27201;SDS011;14717;46.924;15.474;2023-05-29T02:49:50;7.35;;;4.15;;
27201;SDS011;14717;46.924;15.474;2023-05-29T02:54:40;7.20;;;3.70;;
27201;SDS011;14717;46.924;15.474;2023-05-29T02:59:31;7.40;;;3.97;;
27201;SDS011;14717;46.924;15.474;2023-05-29T03:01:57;9.82;;;4.50;;
27201;SDS011;14717;46.924;15.474;2023-05-29T03:06:48;8.33;;;4.53;;
27201;SDS011;14717;46.924;15.474;2023-05-29T03:09:13;7.38;;;4.25;;
27201;SDS011;14717;46.924;15.474;2023-05-29T03:11:40;9.77;;;4.30;;
27201;SDS011;14717;46.924;15.474;2023-05-29T03:16:31;8.90;;;3.93;;
27201;SDS011;14717;46.924;15.474;2023-05-29T03:21:22;8.40;;;4.40;;
27201;SDS011;14717;46.924;15.474;2023-05-29T03:26:13;9.45;;;3.85;;
27201;SDS011;14717;46.924;15.474;2023-05-29T03:31:05;9.02;;;3.90;;
27201;SDS011;14717;46.924;15.474;2023-05-29T03:33:30;10.02;;;4.50;;
27201;SDS011;14717;46.924;15.474;2023-05-29T03:35:55;9.00;;;4.10;;
27201;SDS011;14717;46.924;15.474;2023-05-29T03:40:46;7.95;;;4.10;;
27201;SDS011;14717;46.924;15.474;2023-05-29T03:43:12;7.38;;;4.38;;
27201;SDS011;14717;46.924;15.474;2023-05-29T03:48:02;8.37;;;4.10;;
27201;SDS011;14717;46.924;15.474;2023-05-29T03:52:53;10.13;;;4.43;;
27201;SDS011;14717;46.924;15.474;2023-05-29T03:57:44;7.50;;;3.92;;
27201;SDS011;14717;46.924;15.474;2023-05-29T04:00:10;9.63;;;4.20;;
27201;SDS011;14717;46.924;15.474;2023-05-29T04:02:37;9.60;;;4.18;;
27201;SDS011;14717;46.924;15.474;2023-05-29T04:05:06;8.35;;;4.30;;
27201;SDS011;14717;46.924;15.474;2023-05-29T04:07:34;10.27;;;4.47;;
27201;SDS011;14717;46.924;15.474;2023-05-29T04:10:02;7.50;;;4.15;;
27201;SDS011;14717;46.924;15.474;2023-05-29T04:14:53;8.00;;;4.33;;
27201;SDS011;14717;46.924;15.474;2023-05-29T04:19:43;9.00;;;4.30;;
27201;SDS011;14717;46.924;15.474;2023-05-29T04:24:34;9.00;;;4.65;;
27201;SDS011;14717;46.924;15.474;2023-05-29T04:27:00;9.98;;;4.50;;
27201;SDS011;14717;46.924;15.474;2023-05-29T04:29:26;8.75;;;4.72;;
27201;SDS011;14717;46.924;15.474;2023-05-29T04:31:53;8.90;;;4.25;;
27201;SDS011;14717;46.924;15.474;2023-05-29T04:34:20;9.25;;;4.90;;
27201;SDS011;14717;46.924;15.474;2023-05-29T04:36:46;12.55;;;4.90;;
27201;SDS011;14717;46.924;15.474;2023-05-29T04:41:37;9.93;;;4.77;;
27201;SDS011;14717;46.924;15.474;2023-05-29T04:44:03;9.25;;;4.20;;
27201;SDS011;14717;46.924;15.474;2023-05-29T04:48:54;9.02;;;4.13;;
27201;SDS011;14717;46.924;15.474;2023-05-29T04:53:46;9.38;;;4.57;;
27201;SDS011;14717;46.924;15.474;2023-05-29T04:56:12;10.10;;;4.57;;
27201;SDS011;14717;46.924;15.474;2023-05-29T04:58:38;8.82;;;4.13;;
27201;SDS011;14717;46.924;15.474;2023-05-29T05:01:07;8.25;;;3.90;;
27201;SDS011;14717;46.924;15.474;2023-05-29T05:03:34;8.70;;;4.30;;
27201;SDS011;14717;46.924;15.474;2023-05-29T05:08:27;10.15;;;3.95;;
27201;SDS011;14717;46.924;15.474;2023-05-29T05:10:54;9.05;;;4.60;;
27201;SDS011;14717;46.924;15.474;2023-05-29T05:15:44;13.03;;;4.90;;
27201;SDS011;14717;46.924;15.474;2023-05-29T05:20:35;11.10;;;4.80;;
27201;SDS011;14717;46.924;15.474;2023-05-29T05:25:26;10.65;;;4.90;;
27201;SDS011;14717;46.924;15.474;2023-05-29T05:30:16;8.53;;;4.63;;
27201;SDS011;14717;46.924;15.474;2023-05-29T05:35:07;10.27;;;4.70;;
27201;SDS011;14717;46.924;15.474;2023-05-29T05:37:35;9.20;;;4.53;;
27201;SDS011;14717;46.924;15.474;2023-05-29T05:42:25;8.63;;;4.57;;
27201;SDS011;14717;46.924;15.474;2023-05-29T05:47:16;9.60;;;4.53;;
27201;SDS011;14717;46.924;15.474;2023-05-29T05:52:08;10.48;;;4.32;;
27201;SDS011;14717;46.924;15.474;2023-05-29T05:56:59;9.23;;;4.22;;
27201;SDS011;14717;46.924;15.474;2023-05-29T05:59:25;9.38;;;4.45;;
27201;SDS011;14717;46.924;15.474;2023-05-29T06:04:16;12.00;;;4.50;;
27201;SDS011;14717;46.924;15.474;2023-05-29T06:06:43;10.00;;;4.55;;
27201;SDS011;14717;46.924;15.474;2023-05-29T06:09:09;9.32;;;4.30;;
27201;SDS011;14717;46.924;15.474;2023-05-29T06:11:36;8.85;;;4.53;;
27201;SDS011;14717;46.924;15.474;2023-05-29T06:14:02;12.07;;;4.75;;
27201;SDS011;14717;46.924;15.474;2023-05-29T06:16:28;9.75;;;4.10;;
27201;SDS011;14717;46.924;15.474;2023-05-29T06:18:54;8.32;;;4.07;;
27201;SDS011;14717;46.924;15.474;2023-05-29T06:21:19;8.85;;;4.15;;
27201;SDS011;14717;46.924;15.474;2023-05-29T06:23:45;10.30;;;4.38;;
27201;SDS011;14717;46.924;15.474;2023-05-29T06:26:10;8.65;;;4.15;;
27201;SDS011;14717;46.924;15.474;2023-05-29T06:28:37;7.88;;;4.57;;
27201;SDS011;14717;46.924;15.474;2023-05-29T06:31:02;11.45;;;4.70;;
27201;SDS011;14717;46.924;15.474;2023-05-29T06:33:28;8.27;;;4.30;;
27201;SDS011;14717;46.924;15.474;2023-05-29T06:35:54;8.55;;;4.22;;
27201;SDS011;14717;46.924;15.474;2023-05-29T06:38:20;8.05;;;4.28;;
27201;SDS011;14717;46.924;15.474;2023-05-29T06:40:45;11.05;;;4.57;;
27201;SDS011;14717;46.924;15.474;2023-05-29T06:43:11;8.15;;;4.75;;
27201;SDS011;14717;46.924;15.474;2023-05-29T06:45:36;7.22;;;3.92;;
27201;SDS011;14717;46.924;15.474;2023-05-29T06:48:02;7.75;;;4.07;;
27201;SDS011;14717;46.924;15.474;2023-05-29T06:50:27;10.05;;;4.20;;
27201;SDS011;14717;46.924;15.474;2023-05-29T06:52:53;6.30;;;4.03;;
27201;SDS011;14717;46.924;15.474;2023-05-29T06:55:19;11.60;;;4.53;;
27201;SDS011;14717;46.924;15.474;2023-05-29T06:57:44;10.95;;;4.70;;
27201;SDS011;14717;46.924;15.474;2023-05-29T07:00:10;9.00;;;4.45;;
27201;SDS011;14717;46.924;15.474;2023-05-29T07:02:36;8.20;;;4.28;;
27201;SDS011;14717;46.924;15.474;2023-05-29T07:05:02;8.77;;;4.13;;
27201;SDS011;14717;46.924;15.474;2023-05-29T07:07:28;7.57;;;4.20;;
27201;SDS011;14717;46.924;15.474;2023-05-29T07:09:53;9.75;;;4.65;;
27201;SDS011;14717;46.924;15.474;2023-05-29T07:12:19;10.32;;;4.30;;
27201;SDS011;14717;46.924;15.474;2023-05-29T07:14:44;7.13;;;3.95;;
27201;SDS011;14717;46.924;15.474;2023-05-29T07:17:11;6.85;;;4.13;;
27201;SDS011;14717;46.924;15.474;2023-05-29T07:19:37;8.38;;;3.67;;
27201;SDS011;14717;46.924;15.474;2023-05-29T07:22:02;8.18;;;4.22;;
27201;SDS011;14717;46.924;15.474;2023-05-29T07:24:27;9.32;;;3.90;;
27201;SDS011;14717;46.924;15.474;2023-05-29T07:26:53;7.32;;;3.85;;
27201;SDS011;14717;46.924;15.474;2023-05-29T07:29:20;8.32;;;4.10;;
27201;SDS011;14717;46.924;15.474;2023-05-29T07:31:48;6.45;;;3.85;;
27201;SDS011;14717;46.924;15.474;2023-05-29T07:34:14;9.57;;;4.15;;
27201;SDS011;14717;46.924;15.474;2023-05-29T07:36:55;7.60;;;3.53;;
27201;SDS011;14717;46.924;15.474;2023-05-29T07:39:28;7.72;;;4.20;;
27201;SDS011;14717;46.924;15.474;2023-05-29T07:41:54;8.40;;;4.05;;
27201;SDS011;14717;46.924;15.474;2023-05-29T07:44:20;9.98;;;4.20;;
27201;SDS011;14717;46.924;15.474;2023-05-29T07:46:45;6.03;;;3.22;;
27201;SDS011;14717;46.924;15.474;2023-05-29T07:49:11;8.25;;;3.97;;
27201;SDS011;14717;46.924;15.474;2023-05-29T07:51:36;10.23;;;3.85;;
27201;SDS011;14717;46.924;15.474;2023-05-29T07:54:02;8.88;;;3.42;;
27201;SDS011;14717;46.924;15.474;2023-05-29T07:56:28;7.05;;;3.25;;
27201;SDS011;14717;46.924;15.474;2023-05-29T07:58:54;6.45;;;3.38;;
27201;SDS011;14717;46.924;15.474;2023-05-29T08:01:21;9.90;;;3.70;;
27201;SDS011;14717;46.924;15.474;2023-05-29T08:03:47;6.53;;;3.70;;
27201;SDS011;14717;46.924;15.474;2023-05-29T08:06:12;7.28;;;3.35;;
27201;SDS011;14717;46.924;15.474;2023-05-29T08:08:38;7.82;;;3.42;;
27201;SDS011;14717;46.924;15.474;2023-05-29T08:11:03;7.38;;;3.63;;
27201;SDS011;14717;46.924;15.474;2023-05-29T08:13:29;8.38;;;3.90;;
27201;SDS011;14717;46.924;15.474;2023-05-29T08:15:55;6.55;;;3.67;;
27201;SDS011;14717;46.924;15.474;2023-05-29T08:18:21;9.40;;;3.72;;
27201;SDS011;14717;46.924;15.474;2023-05-29T08:20:46;7.00;;;3.45;;
27201;SDS011;14717;46.924;15.474;2023-05-29T08:23:12;11.77;;;3.90;;
27201;SDS011;14717;46.924;15.474;2023-05-29T08:25:37;8.38;;;3.72;;
27201;SDS011;14717;46.924;15.474;2023-05-29T08:28:03;7.45;;;3.53;;
27201;SDS011;14717;46.924;15.474;2023-05-29T08:30:28;7.82;;;3.78;;
27201;SDS011;14717;46.924;15.474;2023-05-29T08:32:53;8.25;;;3.95;;
27201;SDS011;14717;46.924;15.474;2023-05-29T08:35:19;7.88;;;3.83;;
27201;SDS011;14717;46.924;15.474;2023-05-29T08:37:44;9.63;;;3.70;;
27201;SDS011;14717;46.924;15.474;2023-05-29T08:40:10;7.25;;;3.60;;
27201;SDS011;14717;46.924;15.474;2023-05-29T08:42:39;7.82;;;3.53;;
27201;SDS011;14717;46.924;15.474;2023-05-29T08:45:10;7.82;;;3.63;;
27201;SDS011;14717;46.924;15.474;2023-05-29T08:47:38;6.72;;;3.40;;
27201;SDS011;14717;46.924;15.474;2023-05-29T08:50:06;6.90;;;3.50;;
27201;SDS011;14717;46.924;15.474;2023-05-29T08:52:33;10.15;;;3.80;;
27201;SDS011;14717;46.924;15.474;2023-05-29T08:55:01;11.18;;;4.00;;
27201;SDS011;14717;46.924;15.474;2023-05-29T08:57:28;7.60;;;3.92;;
27201;SDS011;14717;46.924;15.474;2023-05-29T08:59:53;6.53;;;3.30;;
27201;SDS011;14717;46.924;15.474;2023-05-29T09:02:21;7.95;;;3.83;;
27201;SDS011;14717;46.924;15.474;2023-05-29T09:04:46;8.35;;;3.67;;
27201;SDS011;14717;46.924;15.474;2023-05-29T09:07:17;9.98;;;3.78;;
27201;SDS011;14717;46.924;15.474;2023-05-29T09:09:47;10.27;;;3.60;;
27201;SDS011;14717;46.924;15.474;2023-05-29T09:12:13;7.63;;;3.50;;
27201;SDS011;14717;46.924;15.474;2023-05-29T09:14:42;12.40;;;4.45;;
27201;SDS011;14717;46.924;15.474;2023-05-29T09:17:09;8.90;;;3.50;;
27201;SDS011;14717;46.924;15.474;2023-05-29T09:19:37;5.80;;;3.38;;
27201;SDS011;14717;46.924;15.474;2023-05-29T09:24:36;6.78;;;3.70;;
27201;SDS011;14717;46.924;15.474;2023-05-29T09:27:03;8.65;;;3.90;;
27201;SDS011;14717;46.924;15.474;2023-05-29T09:29:32;9.10;;;3.92;;
27201;SDS011;14717;46.924;15.474;2023-05-29T09:31:59;9.07;;;3.70;;
27201;SDS011;14717;46.924;15.474;2023-05-29T09:34:25;6.78;;;3.50;;
27201;SDS011;14717;46.924;15.474;2023-05-29T09:36:53;6.22;;;3.28;;
27201;SDS011;14717;46.924;15.474;2023-05-29T09:39:32;8.32;;;4.05;;
27201;SDS011;14717;46.924;15.474;2023-05-29T09:41:58;7.85;;;4.03;;
27201;SDS011;14717;46.924;15.474;2023-05-29T09:44:24;10.18;;;4.30;;
27201;SDS011;14717;46.924;15.474;2023-05-29T09:46:56;6.55;;;3.40;;
27201;SDS011;14717;46.924;15.474;2023-05-29T09:49:23;8.73;;;3.80;;
27201;SDS011;14717;46.924;15.474;2023-05-29T09:51:48;8.02;;;3.97;;
27201;SDS011;14717;46.924;15.474;2023-05-29T09:54:18;8.45;;;3.67;;
27201;SDS011;14717;46.924;15.474;2023-05-29T09:56:45;7.32;;;3.80;;
27201;SDS011;14717;46.924;15.474;2023-05-29T09:59:11;8.05;;;3.47;;
27201;SDS011;14717;46.924;15.474;2023-05-29T10:01:39;9.77;;;2.88;;
27201;SDS011;14717;46.924;15.474;2023-05-29T10:04:09;8.15;;;3.60;;
27201;SDS011;14717;46.924;15.474;2023-05-29T10:06:36;8.45;;;3.63;;
27201;SDS011;14717;46.924;15.474;2023-05-29T10:09:12;7.65;;;3.60;;
27201;SDS011;14717;46.924;15.474;2023-05-29T10:11:43;7.15;;;3.55;;
27201;SDS011;14717;46.924;15.474;2023-05-29T10:14:09;7.28;;;3.70;;
27201;SDS011;14717;46.924;15.474;2023-05-29T10:16:40;9.60;;;3.97;;
27201;SDS011;14717;46.924;15.474;2023-05-29T10:19:10;8.75;;;4.15;;
27201;SDS011;14717;46.924;15.474;2023-05-29T10:21:39;7.05;;;3.40;;
27201;SDS011;14717;46.924;15.474;2023-05-29T10:24:06;6.88;;;3.50;;
27201;SDS011;14717;46.924;15.474;2023-05-29T10:26:40;7.50;;;3.50;;
27201;SDS011;14717;46.924;15.474;2023-05-29T10:34:50;7.78;;;3.95;;
27201;SDS011;14717;46.924;15.474;2023-05-29T10:40:04;8.73;;;3.40;;
27201;SDS011;14717;46.924;15.474;2023-05-29T10:42:44;6.50;;;3.40;;
27201;SDS011;14717;46.924;15.474;2023-05-29T10:45:47;8.70;;;3.50;;
27201;SDS011;14717;46.924;15.474;2023-05-29T10:50:43;5.95;;;3.70;;
27201;SDS011;14717;46.924;15.474;2023-05-29T10:53:14;7.47;;;3.92;;
27201;SDS011;14717;46.924;15.474;2023-05-29T10:55:41;7.00;;;4.10;;
27201;SDS011;14717;46.924;15.474;2023-05-29T10:58:40;7.57;;;3.42;;
27201;SDS011;14717;46.924;15.474;2023-05-29T11:00:58;6.30;;;3.47;;
27201;SDS011;14717;46.924;15.474;2023-05-29T11:03:30;7.40;;;3.60;;
27201;SDS011;14717;46.924;15.474;2023-05-29T11:05:57;6.85;;;3.35;;
27201;SDS011;14717;46.924;15.474;2023-05-29T11:08:53;6.93;;;3.70;;
27201;SDS011;14717;46.924;15.474;2023-05-29T11:13:57;9.00;;;3.80;;
27201;SDS011;14717;46.924;15.474;2023-05-29T11:18:55;8.23;;;3.93;;
27201;SDS011;14717;46.924;15.474;2023-05-29T11:26:46;6.05;;;3.08;;
27201;SDS011;14717;46.924;15.474;2023-05-29T11:29:12;7.68;;;4.00;;
27201;SDS011;14717;46.924;15.474;2023-05-29T11:31:39;6.18;;;3.70;;
27201;SDS011;14717;46.924;15.474;2023-05-29T11:34:05;8.32;;;4.10;;
27201;SDS011;14717;46.924;15.474;2023-05-29T11:36:38;6.55;;;3.05;;
27201;SDS011;14717;46.924;15.474;2023-05-29T11:39:04;6.70;;;3.33;;
27201;SDS011;14717;46.924;15.474;2023-05-29T11:41:30;6.40;;;3.67;;
27201;SDS011;14717;46.924;15.474;2023-05-29T11:43:56;6.97;;;3.20;;
27201;SDS011;14717;46.924;15.474;2023-05-29T11:46:30;5.53;;;3.30;;
27201;SDS011;14717;46.924;15.474;2023-05-29T11:48:57;7.35;;;3.35;;
27201;SDS011;14717;46.924;15.474;2023-05-29T11:51:27;7.60;;;3.75;;
27201;SDS011;14717;46.924;15.474;2023-05-29T11:53:53;6.00;;;3.55;;
27201;SDS011;14717;46.924;15.474;2023-05-29T11:56:26;7.22;;;3.50;;
27201;SDS011;14717;46.924;15.474;2023-05-29T11:58:53;7.18;;;3.75;;
27201;SDS011;14717;46.924;15.474;2023-05-29T12:01:24;6.38;;;3.40;;
27201;SDS011;14717;46.924;15.474;2023-05-29T12:03:50;7.38;;;3.85;;
27201;SDS011;14717;46.924;15.474;2023-05-29T12:06:16;7.88;;;3.85;;
27201;SDS011;14717;46.924;15.474;2023-05-29T12:08:55;7.60;;;3.20;;
27201;SDS011;14717;46.924;15.474;2023-05-29T12:11:24;7.05;;;3.88;;
27201;SDS011;14717;46.924;15.474;2023-05-29T12:14:00;7.45;;;3.85;;
27201;SDS011;14717;46.924;15.474;2023-05-29T12:16:30;7.28;;;3.53;;
27201;SDS011;14717;46.924;15.474;2023-05-29T12:19:05;8.65;;;4.15;;
27201;SDS011;14717;46.924;15.474;2023-05-29T12:21:34;6.63;;;3.67;;
27201;SDS011;14717;46.924;15.474;2023-05-29T12:24:00;7.85;;;3.67;;
27201;SDS011;14717;46.924;15.474;2023-05-29T12:26:26;7.72;;;3.60;;
27201;SDS011;14717;46.924;15.474;2023-05-29T12:28:58;6.00;;;3.20;;
27201;SDS011;14717;46.924;15.474;2023-05-29T12:31:28;5.78;;;3.38;;
27201;SDS011;14717;46.924;15.474;2023-05-29T12:33:54;6.68;;;3.47;;
27201;SDS011;14717;46.924;15.474;2023-05-29T12:36:25;6.82;;;3.55;;
27201;SDS011;14717;46.924;15.474;2023-05-29T12:38:52;7.45;;;3.80;;
27201;SDS011;14717;46.924;15.474;2023-05-29T12:41:27;6.07;;;3.33;;
27201;SDS011;14717;46.924;15.474;2023-05-29T12:44:11;11.98;;;3.80;;
27201;SDS011;14717;46.924;15.474;2023-05-29T12:46:41;6.38;;;3.78;;
27201;SDS011;14717;46.924;15.474;2023-05-29T12:49:27;6.53;;;3.45;;
27201;SDS011;14717;46.924;15.474;2023-05-29T12:51:54;7.35;;;3.35;;
27201;SDS011;14717;46.924;15.474;2023-05-29T12:54:19;5.80;;;3.13;;
27201;SDS011;14717;46.924;15.474;2023-05-29T12:56:45;6.55;;;3.13;;
27201;SDS011;14717;46.924;15.474;2023-05-29T12:59:29;7.05;;;3.42;;
27201;SDS011;14717;46.924;15.474;2023-05-29T13:02:09;6.32;;;3.30;;
27201;SDS011;14717;46.924;15.474;2023-05-29T13:04:37;6.75;;;3.50;;
27201;SDS011;14717;46.924;15.474;2023-05-29T13:07:22;5.53;;;3.58;;
27201;SDS011;14717;46.924;15.474;2023-05-29T13:10:15;6.53;;;3.58;;
27201;SDS011;14717;46.924;15.474;2023-05-29T13:13:16;7.25;;;3.30;;
27201;SDS011;14717;46.924;15.474;2023-05-29T13:16:21;6.72;;;3.33;;
27201;SDS011;14717;46.924;15.474;2023-05-29T13:19:09;5.60;;;3.15;;
27201;SDS011;14717;46.924;15.474;2023-05-29T13:22:04;6.07;;;3.25;;
27201;SDS011;14717;46.924;15.474;2023-05-29T13:33:48;7.75;;;3.40;;
27201;SDS011;14717;46.924;15.474;2023-05-29T13:36:14;6.30;;;3.30;;
27201;SDS011;14717;46.924;15.474;2023-05-29T13:38:39;7.47;;;3.50;;
27201;SDS011;14717;46.924;15.474;2023-05-29T13:41:04;7.03;;;3.55;;
27201;SDS011;14717;46.924;15.474;2023-05-29T13:43:30;7.53;;;3.83;;
27201;SDS011;14717;46.924;15.474;2023-05-29T13:45:56;7.40;;;3.65;;
27201;SDS011;14717;46.924;15.474;2023-05-29T13:48:22;7.43;;;3.50;;
27201;SDS011;14717;46.924;15.474;2023-05-29T13:50:47;6.70;;;3.50;;
27201;SDS011;14717;46.924;15.474;2023-05-29T13:53:13;8.15;;;4.03;;
27201;SDS011;14717;46.924;15.474;2023-05-29T13:55:39;7.32;;;3.67;;
27201;SDS011;14717;46.924;15.474;2023-05-29T13:58:04;6.47;;;3.30;;
27201;SDS011;14717;46.924;15.474;2023-05-29T14:00:30;6.10;;;3.55;;
27201;SDS011;14717;46.924;15.474;2023-05-29T14:02:55;6.40;;;3.58;;
27201;SDS011;14717;46.924;15.474;2023-05-29T14:05:21;5.88;;;3.13;;
27201;SDS011;14717;46.924;15.474;2023-05-29T14:07:46;7.22;;;3.60;;
27201;SDS011;14717;46.924;15.474;2023-05-29T14:10:12;6.93;;;3.70;;
27201;SDS011;14717;46.924;15.474;2023-05-29T14:12:37;6.65;;;3.50;;
27201;SDS011;14717;46.924;15.474;2023-05-29T14:15:02;6.88;;;3.45;;
27201;SDS011;14717;46.924;15.474;2023-05-29T14:17:28;6.15;;;3.63;;
27201;SDS011;14717;46.924;15.474;2023-05-29T14:19:53;8.32;;;3.83;;
27201;SDS011;14717;46.924;15.474;2023-05-29T14:22:20;5.90;;;2.90;;
27201;SDS011;14717;46.924;15.474;2023-05-29T14:24:45;6.57;;;3.40;;
27201;SDS011;14717;46.924;15.474;2023-05-29T14:27:11;7.93;;;3.38;;
27201;SDS011;14717;46.924;15.474;2023-05-29T14:29:36;6.57;;;3.60;;
27201;SDS011;14717;46.924;15.474;2023-05-29T14:32:02;7.75;;;3.53;;
27201;SDS011;14717;46.924;15.474;2023-05-29T14:34:27;8.60;;;3.25;;
27201;SDS011;14717;46.924;15.474;2023-05-29T14:36:52;6.43;;;3.80;;
27201;SDS011;14717;46.924;15.474;2023-05-29T14:39:18;5.95;;;3.42;;
27201;SDS011;14717;46.924;15.474;2023-05-29T14:41:43;7.03;;;3.60;;
27201;SDS011;14717;46.924;15.474;2023-05-29T14:44:09;6.00;;;3.63;;
27201;SDS011;14717;46.924;15.474;2023-05-29T14:46:36;6.57;;;3.70;;
27201;SDS011;14717;46.924;15.474;2023-05-29T14:49:01;7.05;;;3.50;;
27201;SDS011;14717;46.924;15.474;2023-05-29T14:51:27;8.55;;;3.58;;
27201;SDS011;14717;46.924;15.474;2023-05-29T14:53:53;7.25;;;3.80;;
27201;SDS011;14717;46.924;15.474;2023-05-29T14:56:18;6.38;;;3.30;;
27201;SDS011;14717;46.924;15.474;2023-05-29T14:58:45;6.38;;;3.42;;
27201;SDS011;14717;46.924;15.474;2023-05-29T15:01:12;6.78;;;3.55;;
27201;SDS011;14717;46.924;15.474;2023-05-29T15:03:38;7.43;;;3.60;;
27201;SDS011;14717;46.924;15.474;2023-05-29T15:06:03;5.85;;;3.33;;
27201;SDS011;14717;46.924;15.474;2023-05-29T15:08:29;6.25;;;3.22;;
27201;SDS011;14717;46.924;15.474;2023-05-29T15:10:59;6.93;;;3.30;;
27201;SDS011;14717;46.924;15.474;2023-05-29T15:13:25;6.97;;;3.50;;
27201;SDS011;14717;46.924;15.474;2023-05-29T15:15:50;6.13;;;3.10;;
27201;SDS011;14717;46.924;15.474;2023-05-29T15:18:16;6.88;;;3.08;;
27201;SDS011;14717;46.924;15.474;2023-05-29T15:20:41;8.35;;;3.55;;
27201;SDS011;14717;46.924;15.474;2023-05-29T15:23:07;7.25;;;3.47;;
27201;SDS011;14717;46.924;15.474;2023-05-29T15:25:32;6.80;;;3.85;;
27201;SDS011;14717;46.924;15.474;2023-05-29T15:27:57;6.47;;;3.42;;
27201;SDS011;14717;46.924;15.474;2023-05-29T15:30:24;5.28;;;3.08;;
27201;SDS011;14717;46.924;15.474;2023-05-29T15:32:49;5.88;;;3.13;;
27201;SDS011;14717;46.924;15.474;2023-05-29T15:35:15;6.32;;;3.03;;
27201;SDS011;14717;46.924;15.474;2023-05-29T15:37:44;5.70;;;3.00;;
27201;SDS011;14717;46.924;15.474;2023-05-29T15:40:09;6.43;;;3.13;;
27201;SDS011;14717;46.924;15.474;2023-05-29T15:42:35;7.85;;;3.38;;
27201;SDS011;14717;46.924;15.474;2023-05-29T15:45:02;5.15;;;2.88;;
27201;SDS011;14717;46.924;15.474;2023-05-29T15:47:28;6.50;;;3.38;;
27201;SDS011;14717;46.924;15.474;2023-05-29T15:49:53;6.30;;;3.30;;
27201;SDS011;14717;46.924;15.474;2023-05-29T15:52:19;7.97;;;3.53;;
27201;SDS011;14717;46.924;15.474;2023-05-29T15:54:44;6.63;;;3.30;;
27201;SDS011;14717;46.924;15.474;2023-05-29T15:57:10;8.27;;;3.38;;
27201;SDS011;14717;46.924;15.474;2023-05-29T15:59:35;6.57;;;3.10;;
27201;SDS011;14717;46.924;15.474;2023-05-29T16:02:01;5.53;;;3.38;;
27201;SDS011;14717;46.924;15.474;2023-05-29T16:04:27;7.95;;;3.20;;
27201;SDS011;14717;46.924;15.474;2023-05-29T16:06:53;5.25;;;2.75;;
27201;SDS011;14717;46.924;15.474;2023-05-29T16:09:18;7.55;;;3.33;;
27201;SDS011;14717;46.924;15.474;2023-05-29T16:11:44;10.07;;;3.50;;
27201;SDS011;14717;46.924;15.474;2023-05-29T16:14:10;7.07;;;3.33;;
27201;SDS011;14717;46.924;15.474;2023-05-29T16:16:36;8.43;;;3.53;;
27201;SDS011;14717;46.924;15.474;2023-05-29T16:19:04;4.97;;;2.70;;
27201;SDS011;14717;46.924;15.474;2023-05-29T16:21:31;6.72;;;3.10;;
27201;SDS011;14717;46.924;15.474;2023-05-29T16:26:28;9.60;;;3.40;;
27201;SDS011;14717;46.924;15.474;2023-05-29T16:28:57;4.45;;;2.78;;
27201;SDS011;14717;46.924;15.474;2023-05-29T16:31:23;6.00;;;3.17;;
27201;SDS011;14717;46.924;15.474;2023-05-29T16:33:50;6.47;;;3.38;;
27201;SDS011;14717;46.924;15.474;2023-05-29T16:36:16;5.90;;;3.30;;
27201;SDS011;14717;46.924;15.474;2023-05-29T16:38:42;4.50;;;2.65;;
27201;SDS011;14717;46.924;15.474;2023-05-29T16:41:08;7.50;;;2.90;;
27201;SDS011;14717;46.924;15.474;2023-05-29T16:43:33;5.70;;;3.25;;
27201;SDS011;14717;46.924;15.474;2023-05-29T16:45:58;6.28;;;3.58;;
27201;SDS011;14717;46.924;15.474;2023-05-29T16:48:24;7.15;;;3.30;;
27201;SDS011;14717;46.924;15.474;2023-05-29T16:50:49;6.25;;;3.03;;
27201;SDS011;14717;46.924;15.474;2023-05-29T16:53:16;6.05;;;3.17;;
27201;SDS011;14717;46.924;15.474;2023-05-29T16:55:44;5.80;;;3.33;;